Time;durP1;ratioP1;P1;durP2;ratioP2;P2;SDS_P1;SDS_P2;PMS_P1;PMS_P2;Temp;Humidity;BMP_temperature;BMP_pressure;BME280_temperature;BME280_humidity;BME280_pressure;Samples;Min_cycle;Max_cycle;Signal;HPM_P1;HPM_P2
2024/03/28 00:00:39;;;;;;;0.47;0.47;;;;;;;7.33;100.00;95516.41;6112522;19;19999;-72
2024/03/28 00:02:39;;;;;;;0.40;0.40;;;;;;;7.31;100.00;95525.09;6109448;19;20015;-72
2024/03/28 00:04:39;;;;;;;0.60;0.50;;;;;;;7.30;100.00;95529.03;6111716;19;20105;-72
2024/03/28 00:06:40;;;;;;;0.95;0.60;;;;;;;7.28;100.00;95528.72;6110929;19;20036;-72
2024/03/28 00:08:42;;;;;;;0.40;0.40;;;;;;;7.29;100.00;95508.25;6111276;19;20332;-72
2024/03/28 00:10:47;;;;;;;1.17;0.43;;;;;;;7.20;100.00;95494.31;6110686;19;19999;-72
2024/03/28 00:12:47;;;;;;;0.50;0.50;;;;;;;7.10;100.00;95494.53;6110356;19;20235;-72
2024/03/28 00:14:47;;;;;;;1.75;0.65;;;;;;;7.04;100.00;95497.81;6110801;19;20328;-72
2024/03/28 00:16:48;;;;;;;0.60;0.60;;;;;;;7.01;100.00;95517.13;6109894;19;19998;-72
2024/03/28 00:18:48;;;;;;;0.45;0.45;;;;;;;6.86;100.00;95515.88;6108485;19;19998;-72
2024/03/28 00:21:01;;;;;;;0.63;0.47;;;;;;;6.85;100.00;95541.81;6110401;19;20007;-72
2024/03/28 00:23:02;;;;;;;0.65;0.50;;;;;;;6.83;100.00;95555.22;6110636;19;20010;-72
2024/03/28 00:25:02;;;;;;;1.45;0.50;;;;;;;6.84;100.00;95554.00;6110331;19;20003;-72
2024/03/28 00:27:03;;;;;;;0.98;0.80;;;;;;;6.87;100.00;95566.88;6108751;19;20023;-72
2024/03/28 00:29:03;;;;;;;1.08;0.85;;;;;;;6.88;100.00;95543.72;6110701;19;20357;-72
2024/03/28 00:31:04;;;;;;;0.65;0.65;;;;;;;6.85;100.00;95530.81;6109643;19;20003;-72
2024/03/28 00:33:04;;;;;;;0.77;0.55;;;;;;;6.83;100.00;95528.50;6109886;19;20002;-72
2024/03/28 00:35:05;;;;;;;0.43;0.43;;;;;;;6.71;100.00;95526.41;6109514;19;19999;-72
2024/03/28 00:37:06;;;;;;;1.95;0.40;;;;;;;6.67;100.00;95540.22;6109034;19;20537;-72
2024/03/28 00:39:06;;;;;;;1.75;1.00;;;;;;;6.64;100.00;95570.50;6109891;19;20385;-72
2024/03/28 00:41:06;;;;;;;1.10;0.60;;;;;;;6.63;100.00;95561.50;6111107;19;20015;-72
2024/03/28 00:43:06;;;;;;;0.60;0.60;;;;;;;6.64;100.00;95559.53;6110071;19;20378;-72
2024/03/28 00:45:07;;;;;;;0.98;0.50;;;;;;;6.57;100.00;95554.94;6109318;19;20309;-72
2024/03/28 00:47:07;;;;;;;0.60;0.60;;;;;;;6.50;100.00;95541.34;6107060;19;20574;-72
2024/03/28 00:49:08;;;;;;;1.70;0.60;;;;;;;6.42;100.00;95548.16;6109646;19;19999;-72
2024/03/28 00:51:08;;;;;;;0.68;0.60;;;;;;;6.35;100.00;95545.56;6109328;19;20011;-72
2024/03/28 00:53:08;;;;;;;0.60;0.60;;;;;;;6.29;100.00;95552.72;6109740;19;20003;-72
2024/03/28 00:55:08;;;;;;;2.30;0.60;;;;;;;6.13;100.00;95578.91;6109111;19;20014;-72
2024/03/28 00:57:09;;;;;;;0.63;0.57;;;;;;;6.09;100.00;95605.63;6107724;19;20408;-72
2024/03/28 00:59:09;;;;;;;0.60;0.60;;;;;;;5.96;100.00;95599.19;6109205;19;19999;-72
2024/03/28 01:01:09;;;;;;;0.40;0.40;;;;;;;5.82;100.00;95600.16;6109263;19;20006;-72
2024/03/28 01:03:10;;;;;;;1.30;0.60;;;;;;;5.80;100.00;95607.28;6109154;19;20015;-72
2024/03/28 01:05:10;;;;;;;0.50;0.50;;;;;;;5.71;100.00;95618.78;6109018;19;20015;-72
2024/03/28 01:07:10;;;;;;;1.05;0.50;;;;;;;5.65;100.00;95634.16;6107655;19;20013;-72
2024/03/28 01:09:10;;;;;;;0.45;0.45;;;;;;;5.58;100.00;95624.03;6097583;19;20379;-72
2024/03/28 01:11:11;;;;;;;0.40;0.40;;;;;;;5.45;100.00;95623.06;6109241;19;20402;-72
2024/03/28 01:13:11;;;;;;;0.50;0.50;;;;;;;5.35;100.00;95624.00;6108629;19;21028;-72
2024/03/28 01:15:11;;;;;;;0.43;0.43;;;;;;;5.34;100.00;95630.66;6109087;19;20093;-72
2024/03/28 01:17:12;;;;;;;0.40;0.40;;;;;;;5.34;100.00;95639.66;6106251;19;20002;-72
2024/03/28 01:19:12;;;;;;;0.70;0.60;;;;;;;5.29;100.00;95651.06;6109428;19;20041;-72
2024/03/28 01:21:12;;;;;;;1.05;0.50;;;;;;;5.18;100.00;95646.94;6108213;19;20006;-72
2024/03/28 01:23:12;;;;;;;0.40;0.40;;;;;;;5.09;100.00;95644.69;6109524;19;20625;-72
2024/03/28 01:25:13;;;;;;;0.85;0.57;;;;;;;5.07;100.00;95644.34;6106953;19;20006;-72
2024/03/28 01:27:13;;;;;;;0.50;0.50;;;;;;;4.98;100.00;95641.31;6107261;19;20030;-72
2024/03/28 01:29:13;;;;;;;0.40;0.40;;;;;;;4.88;100.00;95648.47;6108210;19;20518;-72
2024/03/28 01:31:14;;;;;;;0.50;0.50;;;;;;;4.86;100.00;95647.31;6108425;19;19998;-72
2024/03/28 01:33:14;;;;;;;0.50;0.50;;;;;;;4.82;100.00;95660.28;6108592;19;20325;-71
2024/03/28 01:35:15;;;;;;;0.55;0.55;;;;;;;4.78;100.00;95652.09;6108322;19;20010;-72
2024/03/28 01:37:15;;;;;;;0.40;0.40;;;;;;;4.77;100.00;95664.25;6105125;19;19999;-72
2024/03/28 01:39:15;;;;;;;0.43;0.43;;;;;;;4.82;100.00;95657.56;6108050;19;20018;-72
2024/03/28 01:41:16;;;;;;;0.40;0.40;;;;;;;4.78;100.00;95654.84;6107875;19;20082;-72
2024/03/28 01:43:16;;;;;;;1.30;0.50;;;;;;;4.80;100.00;95655.22;6107930;19;20014;-72
2024/03/28 01:45:16;;;;;;;0.40;0.40;;;;;;;4.82;100.00;95658.34;6108527;19;20028;-72
2024/03/28 01:47:17;;;;;;;0.50;0.50;;;;;;;4.68;100.00;95664.72;6105180;19;20013;-72
2024/03/28 01:49:17;;;;;;;0.50;0.50;;;;;;;4.61;100.00;95666.75;6107566;19;20358;-72
2024/03/28 01:51:19;;;;;;;0.52;0.52;;;;;;;4.48;100.00;95664.56;6108033;19;20019;-72
2024/03/28 01:53:20;;;;;;;0.50;0.50;;;;;;;4.50;100.00;95662.19;6107908;19;20007;-72
2024/03/28 01:55:21;;;;;;;0.57;0.57;;;;;;;4.48;100.00;95669.25;6107785;19;20011;-72
2024/03/28 01:57:23;;;;;;;0.40;0.40;;;;;;;4.41;100.00;95666.59;6104279;19;20003;-72
2024/03/28 01:59:24;;;;;;;0.40;0.40;;;;;;;4.40;100.00;95665.03;6107573;19;20007;-72
2024/03/28 02:01:24;;;;;;;0.45;0.45;;;;;;;4.42;100.00;95666.16;6108124;19;19995;-72
2024/03/28 02:03:24;;;;;;;0.60;0.60;;;;;;;4.39;100.00;95672.47;6108661;19;20010;-72
2024/03/28 02:05:25;;;;;;;0.50;0.50;;;;;;;4.34;100.00;95663.91;6106417;19;19995;-71
2024/03/28 02:07:25;;;;;;;0.40;0.40;;;;;;;4.39;100.00;95667.00;6106904;19;20002;-71
2024/03/28 02:09:26;;;;;;;0.63;0.45;;;;;;;4.34;100.00;95678.38;6101578;19;20015;-71
2024/03/28 02:11:27;;;;;;;1.38;0.63;;;;;;;4.32;100.00;95672.53;6099390;19;20007;-71
2024/03/28 02:13:27;;;;;;;0.52;0.52;;;;;;;4.36;100.00;95683.44;6099831;19;20537;-71
2024/03/28 02:15:28;;;;;;;0.50;0.50;;;;;;;4.39;100.00;95677.94;6099777;19;20007;-71
2024/03/28 02:17:28;;;;;;;0.50;0.50;;;;;;;4.40;100.00;95671.28;6097708;19;20014;-71
2024/03/28 02:19:28;;;;;;;0.40;0.40;;;;;;;4.38;100.00;95679.09;6099520;19;20007;-71
2024/03/28 02:21:29;;;;;;;0.50;0.50;;;;;;;4.38;100.00;95683.81;6098972;19;20693;-71
2024/03/28 02:23:29;;;;;;;0.40;0.40;;;;;;;4.32;100.00;95683.47;6099908;19;20087;-71
2024/03/28 02:25:30;;;;;;;0.50;0.50;;;;;;;4.33;100.00;95689.72;6099124;19;19999;-72
2024/03/28 02:27:30;;;;;;;0.45;0.45;;;;;;;4.32;100.00;95683.47;6098206;19;20532;-72
2024/03/28 02:29:30;;;;;;;0.40;0.40;;;;;;;4.30;100.00;95687.78;6099355;19;20026;-72
2024/03/28 02:31:31;;;;;;;0.40;0.40;;;;;;;4.29;100.00;95687.00;6099328;19;20044;-72
2024/03/28 02:33:31;;;;;;;0.40;0.40;;;;;;;4.30;100.00;95683.09;6097590;19;20493;-71
2024/03/28 02:35:31;;;;;;;1.05;0.40;;;;;;;4.32;100.00;95682.69;6098907;19;20002;-71
2024/03/28 02:37:32;;;;;;;0.40;0.40;;;;;;;4.26;100.00;95682.34;6097770;19;20030;-71
2024/03/28 02:39:32;;;;;;;0.77;0.77;;;;;;;4.27;100.00;95678.44;6098998;19;20033;-71
2024/03/28 02:41:32;;;;;;;0.50;0.50;;;;;;;4.33;100.00;95687.00;6099098;19;20003;-71
2024/03/28 02:43:34;;;;;;;0.40;0.40;;;;;;;4.32;100.00;95688.94;6098002;19;20336;-71
2024/03/28 02:45:34;;;;;;;0.50;0.50;;;;;;;4.30;100.00;95691.28;6099177;19;20074;-71
2024/03/28 02:47:36;;;;;;;0.50;0.50;;;;;;;4.33;100.00;95695.19;6098212;19;20760;-71
2024/03/28 02:49:36;;;;;;;1.00;0.50;;;;;;;4.31;100.00;95703.03;6098397;19;20057;-71
2024/03/28 02:51:36;;;;;;;0.50;0.50;;;;;;;4.31;100.00;95692.88;6098740;19;20014;-71
2024/03/28 02:53:37;;;;;;;0.50;0.50;;;;;;;4.30;100.00;95696.00;6099279;19;19999;-71
2024/03/28 02:55:37;;;;;;;1.75;0.65;;;;;;;4.29;100.00;95689.75;6098716;19;20027;-71
2024/03/28 02:57:38;;;;;;;1.45;0.50;;;;;;;4.30;100.00;95687.78;6097652;19;20024;-71
2024/03/28 02:59:38;;;;;;;0.55;0.55;;;;;;;4.31;100.00;95689.38;6097588;19;20011;-71
2024/03/28 03:01:38;;;;;;;0.82;0.77;;;;;;;4.30;100.00;95699.50;6099459;19;20353;-71
2024/03/28 03:03:38;;;;;;;0.45;0.45;;;;;;;4.32;100.00;95693.66;6098286;19;20338;-71
2024/03/28 03:05:39;;;;;;;1.10;0.70;;;;;;;4.37;100.00;95702.19;6098664;19;20015;-71
2024/03/28 03:07:39;;;;;;;0.60;0.55;;;;;;;4.36;100.00;95711.59;6096483;19;20011;-72
2024/03/28 03:09:41;;;;;;;0.80;0.70;;;;;;;4.34;100.00;95703.00;6104136;19;20006;-72
2024/03/28 03:11:42;;;;;;;0.70;0.68;;;;;;;4.32;100.00;95712.81;6111592;19;20020;-72
2024/03/28 03:13:42;;;;;;;0.60;0.52;;;;;;;4.32;100.00;95701.88;6111678;19;20015;-71
2024/03/28 03:15:56;;;;;;;0.73;0.73;;;;;;;4.32;100.00;95699.13;6111323;19;20018;-71
2024/03/28 03:17:56;;;;;;;0.85;0.80;;;;;;;4.33;100.00;95697.94;6109063;19;19998;-71
2024/03/28 03:19:58;;;;;;;0.88;0.80;;;;;;;4.30;100.00;95685.81;6111911;19;20067;-71
2024/03/28 03:22:00;;;;;;;0.93;0.82;;;;;;;4.25;100.00;95675.31;6110581;19;20019;-71
2024/03/28 03:24:00;;;;;;;1.58;0.95;;;;;;;4.21;100.00;95664.41;6110983;19;20296;-72
2024/03/28 03:26:11;;;;;;;1.45;1.00;;;;;;;4.21;100.00;95655.41;6111405;19;19999;-72
2024/03/28 03:35:08;;;;;;;2.22;1.20;;;;;;;4.18;100.00;95667.94;6111916;19;20418;-72
2024/03/28 03:37:13;;;;;;;1.77;1.00;;;;;;;4.21;100.00;95667.13;6109793;19;20007;-72
2024/03/28 03:39:14;;;;;;;2.75;1.30;;;;;;;4.21;100.00;95660.88;6111637;19;20495;-70
2024/03/28 03:41:14;;;;;;;2.63;1.13;;;;;;;4.23;100.00;95672.22;6111655;19;20351;-70
2024/03/28 03:43:15;;;;;;;3.30;1.30;;;;;;;4.21;100.00;95667.13;6110866;19;20007;-71
2024/03/28 03:45:15;;;;;;;1.83;1.23;;;;;;;4.16;100.00;95666.81;6110610;19;20036;-72
2024/03/28 03:47:15;;;;;;;2.08;1.30;;;;;;;4.17;100.00;95671.09;6108652;19;20571;-71
2024/03/28 03:49:16;;;;;;;3.85;1.60;;;;;;;4.22;100.00;95674.19;6111635;19;20381;-72
2024/03/28 03:51:17;;;;;;;2.47;1.38;;;;;;;4.27;100.00;95672.19;6110607;19;20026;-72
2024/03/28 03:53:17;;;;;;;2.15;1.40;;;;;;;4.29;100.00;95678.03;6111354;19;20419;-72
2024/03/28 03:55:17;;;;;;;2.70;1.58;;;;;;;4.26;100.00;95663.19;6109599;19;20003;-72
2024/03/28 03:57:18;;;;;;;2.22;1.40;;;;;;;4.26;100.00;95662.41;6108587;19;19999;-71
2024/03/28 03:59:18;;;;;;;3.22;1.90;;;;;;;4.23;100.00;95672.22;6110777;19;20014;-71
2024/03/28 04:01:18;;;;;;;3.17;1.40;;;;;;;4.22;100.00;95668.72;6111252;19;20029;-72
2024/03/28 04:03:19;;;;;;;3.17;1.63;;;;;;;4.25;100.00;95664.38;6111130;19;20013;-71
2024/03/28 04:05:19;;;;;;;2.35;1.30;;;;;;;4.25;100.00;95658.13;6110605;19;20030;-71
2024/03/28 04:07:19;;;;;;;1.77;1.27;;;;;;;4.24;100.00;95654.63;6109097;19;20079;-71
2024/03/28 04:09:19;;;;;;;2.92;1.65;;;;;;;4.28;100.00;95660.81;6109618;19;20003;-71
2024/03/28 04:11:20;;;;;;;2.85;1.30;;;;;;;4.29;100.00;95656.91;6109884;19;20005;-72
2024/03/28 04:13:21;;;;;;;2.63;1.50;;;;;;;4.29;100.00;95645.94;6109969;19;20032;-72
2024/03/28 04:15:21;;;;;;;4.40;1.50;;;;;;;4.27;100.00;95644.81;6109706;19;20006;-73
2024/03/28 04:17:21;;;;;;;3.08;1.83;;;;;;;4.22;100.00;95648.78;6108965;19;20007;-72
2024/03/28 04:19:21;;;;;;;3.60;1.63;;;;;;;4.24;100.00;95643.66;6107714;19;20501;-72
2024/03/28 04:21:23;;;;;;;6.00;1.88;;;;;;;4.20;100.00;95654.63;6108548;19;20007;-71
2024/03/28 04:23:23;;;;;;;2.30;1.48;;;;;;;4.20;100.00;95656.59;6110021;19;20018;-72
2024/03/28 04:25:23;;;;;;;3.20;1.58;;;;;;;4.20;100.00;95673.78;6108828;19;20002;-72
2024/03/28 04:27:23;;;;;;;2.53;1.58;;;;;;;4.19;100.00;95674.97;6108865;19;20473;-72
2024/03/28 04:29:25;;;;;;;2.78;1.60;;;;;;;4.24;100.00;95679.25;6111453;19;20248;-72
2024/03/28 04:31:26;;;;;;;1.73;1.40;;;;;;;4.23;100.00;95672.22;6109394;19;20491;-72
2024/03/28 04:33:26;;;;;;;2.35;1.75;;;;;;;4.20;100.00;95665.59;6109828;19;20075;-72
2024/03/28 04:35:26;;;;;;;2.67;1.70;;;;;;;4.23;100.00;95664.78;6109229;19;20031;-72
2024/03/28 04:37:26;;;;;;;2.53;1.65;;;;;;;4.22;100.00;95665.19;6109202;19;20034;-72
2024/03/28 04:39:27;;;;;;;2.67;2.13;;;;;;;4.23;100.00;95661.28;6109868;19;20014;-72
2024/03/28 04:41:27;;;;;;;2.90;1.65;;;;;;;4.26;100.00;95654.97;6108944;19;20336;-71
2024/03/28 04:43:27;;;;;;;2.83;1.50;;;;;;;4.31;100.00;95648.31;6111482;19;20339;-71
2024/03/28 04:45:28;;;;;;;2.15;1.52;;;;;;;4.34;100.00;95647.47;6108932;19;20006;-71
2024/03/28 04:47:28;;;;;;;2.67;1.58;;;;;;;4.35;100.00;95643.56;6108777;19;20003;-71
2024/03/28 04:49:28;;;;;;;2.22;1.50;;;;;;;4.35;100.00;95630.66;6109850;19;20019;-72
2024/03/28 04:51:29;;;;;;;2.08;1.60;;;;;;;4.34;100.00;95634.56;6110098;19;20071;-72
2024/03/28 04:53:29;;;;;;;3.25;1.90;;;;;;;4.34;100.00;95628.31;6109213;19;20451;-72
2024/03/28 04:55:29;;;;;;;4.60;2.03;;;;;;;4.32;100.00;95638.91;6106862;19;20366;-72
2024/03/28 04:57:29;;;;;;;3.22;2.20;;;;;;;4.32;100.00;95645.16;6105922;19;20009;-71
2024/03/28 04:59:30;;;;;;;4.22;2.22;;;;;;;4.34;100.00;95644.75;6109484;19;20122;-71
2024/03/28 05:01:30;;;;;;;3.35;2.03;;;;;;;4.35;100.00;95644.34;6109168;19;20003;-72
2024/03/28 05:03:31;;;;;;;2.25;1.60;;;;;;;4.38;100.00;95649.00;6111126;19;20038;-72
2024/03/28 05:05:32;;;;;;;3.03;1.33;;;;;;;4.40;100.00;95645.88;6108889;19;20007;-71
2024/03/28 05:07:33;;;;;;;2.58;1.70;;;;;;;4.42;100.00;95646.22;6108964;19;19998;-72
2024/03/28 05:09:33;;;;;;;2.70;1.88;;;;;;;4.41;100.00;95658.38;6108390;19;20011;-72
2024/03/28 05:11:33;;;;;;;3.17;1.92;;;;;;;4.40;100.00;95654.09;6109625;19;20019;-72
2024/03/28 05:13:34;;;;;;;2.38;1.80;;;;;;;4.44;100.00;95654.81;6109683;19;20459;-72
2024/03/28 05:15:35;;;;;;;4.47;1.90;;;;;;;4.44;100.00;95665.75;6110194;19;20225;-72
2024/03/28 05:17:35;;;;;;;2.88;1.70;;;;;;;4.38;100.00;95659.94;6108655;19;20003;-72
2024/03/28 05:19:36;;;;;;;3.65;1.92;;;;;;;4.36;100.00;95665.06;6109324;19;20009;-71
2024/03/28 05:21:36;;;;;;;2.58;1.90;;;;;;;4.38;100.00;95670.13;6109725;19;20378;-72
2024/03/28 05:23:36;;;;;;;3.17;1.67;;;;;;;4.36;100.00;95659.56;6109702;19;20010;-72
2024/03/28 05:25:37;;;;;;;3.30;1.90;;;;;;;4.40;100.00;95662.28;6109332;19;20007;-72
2024/03/28 05:27:37;;;;;;;2.20;1.70;;;;;;;4.42;100.00;95659.91;6108486;19;20030;-71
2024/03/28 05:29:40;;;;;;;3.92;1.88;;;;;;;4.45;100.00;95662.59;6109221;19;20334;-71
2024/03/28 05:31:40;;;;;;;;;;;;;;;4.53;100.00;95677.00;6109949;19;20535;-71
2024/03/28 05:33:40;;;;;;;2.22;1.90;;;;;;;4.57;100.00;95672.28;6106125;19;19911;-71
2024/03/28 05:35:41;;;;;;;3.08;1.70;;;;;;;4.63;100.00;95667.13;6109279;19;20010;-71
2024/03/28 05:37:41;;;;;;;4.50;1.90;;;;;;;4.66;100.00;95666.34;6104438;19;20334;-71
2024/03/28 05:39:42;;;;;;;2.42;1.90;;;;;;;4.64;100.00;95657.75;6107314;19;20031;-71
2024/03/28 05:41:42;;;;;;;6.10;2.10;;;;;;;4.63;100.00;95656.19;6106398;19;20008;-71
2024/03/28 05:43:43;;;;;;;3.70;2.00;;;;;;;4.62;100.00;95666.34;6109097;19;20006;-71
2024/03/28 05:45:43;;;;;;;3.30;2.00;;;;;;;4.61;100.00;95653.84;6107112;19;20009;-71
2024/03/28 05:47:44;;;;;;;4.53;1.98;;;;;;;4.56;100.00;95654.31;6107063;19;20006;-71
2024/03/28 05:49:44;;;;;;;3.28;1.95;;;;;;;4.51;100.00;95654.75;6108853;19;20327;-71
2024/03/28 05:51:44;;;;;;;6.07;2.33;;;;;;;4.44;100.00;95658.31;6108079;19;19999;-71
2024/03/28 05:53:48;;;;;;;8.65;2.58;;;;;;;4.43;100.00;95645.03;6108428;19;20542;-71
2024/03/28 05:55:49;;;;;;;5.03;2.13;;;;;;;4.42;100.00;95648.97;6108430;19;20364;-71
2024/03/28 05:57:49;;;;;;;4.20;2.30;;;;;;;4.42;100.00;95643.50;6107574;19;20423;-71
2024/03/28 05:59:49;;;;;;;8.93;2.40;;;;;;;4.40;100.00;95648.59;6108035;19;20018;-71
2024/03/28 06:01:49;;;;;;;5.97;2.17;;;;;;;4.44;100.00;95647.38;6108961;19;20280;-71
2024/03/28 06:03:50;;;;;;;5.03;2.10;;;;;;;4.45;100.00;95634.47;6108078;19;20007;-71
2024/03/28 06:05:51;;;;;;;4.13;2.45;;;;;;;4.49;100.00;95632.47;6108608;19;20338;-72
2024/03/28 06:07:51;;;;;;;3.08;2.10;;;;;;;4.59;100.00;95630.81;6105089;19;20656;-72
2024/03/28 06:09:51;;;;;;;4.20;2.33;;;;;;;4.61;100.00;95628.44;6097367;19;20006;-71
2024/03/28 06:11:52;;;;;;;4.95;2.58;;;;;;;4.66;100.00;95636.97;6105707;19;20337;-72
2024/03/28 06:13:54;;;;;;;3.42;2.47;;;;;;;4.66;100.00;95628.00;6106392;19;20014;-72
2024/03/28 06:15:55;;;;;;;2.50;2.05;;;;;;;4.65;100.00;95631.91;6108519;19;20016;-72
2024/03/28 06:17:55;;;;;;;4.30;2.70;;;;;;;4.66;100.00;95630.72;6106125;19;20392;-72
2024/03/28 06:19:55;;;;;;;3.45;2.30;;;;;;;4.66;100.00;95638.94;6107699;19;20082;-72
2024/03/28 06:21:56;;;;;;;4.43;2.47;;;;;;;4.69;100.00;95638.91;6108013;19;20122;-72
2024/03/28 06:23:56;;;;;;;4.20;2.50;;;;;;;4.71;100.00;95630.25;6107156;19;21249;-71
2024/03/28 06:26:00;;;;;;;3.55;2.35;;;;;;;4.76;100.00;95627.09;6107553;19;20015;-71
2024/03/28 06:28:00;;;;;;;3.00;2.42;;;;;;;4.82;100.00;95635.66;6106205;19;20030;-72
2024/03/28 06:30:00;;;;;;;4.20;2.58;;;;;;;4.87;100.00;95629.69;6107961;19;20403;-72
2024/03/28 06:32:01;;;;;;;3.95;2.85;;;;;;;4.91;100.00;95627.69;6107328;19;20295;-72
2024/03/28 06:34:01;;;;;;;4.97;2.90;;;;;;;5.00;100.00;95627.97;6107403;19;20011;-72
2024/03/28 06:36:04;;;;;;;4.85;2.58;;;;;;;5.21;100.00;95615.94;6107203;19;20001;-72
2024/03/28 06:38:05;;;;;;;3.80;2.55;;;;;;;5.39;100.00;95622.00;6103125;19;20006;-72
2024/03/28 06:40:05;;;;;;;3.47;2.30;;;;;;;5.50;100.00;95625.34;6108264;19;20451;-72
2024/03/28 06:42:07;;;;;;;5.18;3.78;;;;;;;5.65;100.00;95625.91;6107487;19;20006;-72
2024/03/28 06:44:07;;;;;;;3.38;2.70;;;;;;;5.73;100.00;95634.81;6111210;19;20924;-71
2024/03/28 06:46:07;;;;;;;5.07;2.53;;;;;;;5.76;100.00;95623.78;6118463;19;20010;-71
2024/03/28 06:48:08;;;;;;;3.25;2.47;;;;;;;5.79;100.00;95631.19;6117536;19;19999;-70
2024/03/28 06:50:09;;;;;;;4.18;2.38;;;;;;;5.87;100.00;95626.34;6118709;19;20009;-72
2024/03/28 06:52:09;;;;;;;3.53;2.33;;;;;;;5.92;100.00;95628.66;6118942;19;20003;-72
2024/03/28 06:54:10;;;;;;;4.18;2.42;;;;;;;5.94;100.00;95622.75;6118823;19;20003;-72
2024/03/28 06:56:10;;;;;;;5.22;2.80;;;;;;;6.01;100.00;95622.63;6117497;19;20003;-72
2024/03/28 06:58:10;;;;;;;3.35;2.45;;;;;;;6.05;100.00;95617.88;6117875;19;20003;-71
2024/03/28 07:00:12;;;;;;;3.33;2.22;;;;;;;6.16;100.00;95621.22;6118930;19;20006;-72
2024/03/28 07:02:12;;;;;;;2.90;2.50;;;;;;;6.16;100.00;95621.97;6119367;19;20014;-71
2024/03/28 07:04:12;;;;;;;3.25;2.47;;;;;;;6.20;100.00;95628.16;6118715;19;20016;-71
2024/03/28 07:06:12;;;;;;;3.47;2.47;;;;;;;6.23;100.00;95625.81;6117011;19;20119;-72
2024/03/28 07:08:13;;;;;;;3.40;2.40;;;;;;;6.23;100.00;95621.09;6118257;19;20446;-72
2024/03/28 07:10:13;;;;;;;3.28;2.47;;;;;;;6.31;100.00;95633.50;6110144;19;20015;-72
2024/03/28 07:12:14;;;;;;;3.05;2.33;;;;;;;6.36;100.00;95635.75;6110269;19;20002;-72
2024/03/28 07:14:18;;;;;;;2.85;2.13;;;;;;;6.44;100.00;95645.41;6111218;19;20315;-72
2024/03/28 07:16:18;;;;;;;3.28;2.30;;;;;;;6.55;100.00;95649.97;6109779;19;20020;-71
2024/03/28 07:18:19;;;;;;;3.28;2.58;;;;;;;6.53;100.00;95644.09;6109634;19;19999;-71
2024/03/28 07:20:19;;;;;;;3.47;2.33;;;;;;;6.54;100.00;95646.44;6109321;19;20503;-71
2024/03/28 07:22:19;;;;;;;3.38;2.03;;;;;;;6.53;100.00;95639.38;6110204;19;20032;-71
2024/03/28 07:24:20;;;;;;;3.90;2.42;;;;;;;6.53;100.00;95633.88;6110323;19;20062;-71
2024/03/28 07:26:21;;;;;;;4.15;2.33;;;;;;;6.56;100.00;95630.31;6109719;19;20153;-72
2024/03/28 07:28:21;;;;;;;3.83;2.28;;;;;;;6.57;100.00;95623.63;6107537;19;20423;-72
2024/03/28 07:30:22;;;;;;;2.58;2.20;;;;;;;6.62;100.00;95611.34;6110337;19;20007;-71
2024/03/28 07:32:22;;;;;;;2.13;1.92;;;;;;;6.63;100.00;95613.69;6109759;19;20066;-71
2024/03/28 07:34:22;;;;;;;1.88;1.63;;;;;;;6.65;100.00;95610.53;6109401;19;20029;-71
2024/03/28 07:36:23;;;;;;;2.60;2.20;;;;;;;6.72;100.00;95600.16;6109127;19;20020;-71
2024/03/28 07:38:23;;;;;;;2.90;2.20;;;;;;;6.80;100.00;95608.28;6109111;19;20018;-71
2024/03/28 07:40:23;;;;;;;2.45;1.70;;;;;;;6.87;100.00;95617.16;6109022;19;20034;-71
2024/03/28 07:42:23;;;;;;;2.33;2.08;;;;;;;6.95;100.00;95615.03;6110261;19;20449;-71
2024/03/28 07:44:24;;;;;;;2.50;2.00;;;;;;;7.01;100.00;95627.06;6110142;19;20468;-71
2024/03/28 07:46:24;;;;;;;3.38;2.15;;;;;;;7.11;100.00;95630.81;6107954;19;20010;-71
2024/03/28 07:48:24;;;;;;;4.80;2.08;;;;;;;7.19;100.00;95623.97;6109171;19;20006;-71
2024/03/28 07:50:25;;;;;;;2.17;1.90;;;;;;;7.25;100.00;95631.28;6109140;19;20006;-71
2024/03/28 07:52:25;;;;;;;2.72;2.00;;;;;;;7.26;100.00;95630.09;6109580;19;20041;-71
2024/03/28 07:54:25;;;;;;;2.45;1.83;;;;;;;7.29;100.00;95625.72;6111110;19;21019;-71
2024/03/28 07:56:26;;;;;;;2.20;1.77;;;;;;;7.32;100.00;95627.63;6101378;19;20010;-71
2024/03/28 07:58:26;;;;;;;3.80;2.33;;;;;;;7.42;100.00;95631.34;6102161;19;20015;-71
2024/03/28 08:00:27;;;;;;;4.55;2.55;;;;;;;7.46;100.00;95643.81;6104237;19;20012;-71
2024/03/28 08:02:27;;;;;;;4.68;2.58;;;;;;;7.49;100.00;95642.97;6103839;19;20026;-71
2024/03/28 08:04:28;;;;;;;3.40;2.30;;;;;;;7.50;100.00;95639.00;6102181;19;20963;-71
2024/03/28 08:06:28;;;;;;;3.53;2.15;;;;;;;7.61;100.00;95655.28;6102447;19;20002;-71
2024/03/28 08:08:28;;;;;;;2.80;1.83;;;;;;;7.67;100.00;95644.53;6101101;19;19999;-71
2024/03/28 08:10:31;;;;;;;5.03;3.55;;;;;;;7.69;100.00;95636.63;6111551;19;20476;-71
2024/03/28 08:12:31;;;;;;;3.47;2.40;;;;;;;7.74;100.00;95642.41;6111447;19;20038;-71
2024/03/28 08:14:31;;;;;;;2.20;1.80;;;;;;;7.80;100.00;95643.47;6111199;19;20415;-71
2024/03/28 08:16:32;;;;;;;2.40;1.85;;;;;;;7.88;100.00;95650.34;6110536;19;20074;-71
2024/03/28 08:18:32;;;;;;;3.90;2.13;;;;;;;7.92;100.00;95647.50;6110229;19;20011;-71
2024/03/28 08:20:33;;;;;;;3.13;2.13;;;;;;;8.01;100.00;95644.91;6110376;19;20006;-71
2024/03/28 08:22:33;;;;;;;3.92;2.88;;;;;;;8.06;100.00;95647.16;6110716;19;20018;-71
2024/03/28 08:24:35;;;;;;;5.05;3.22;;;;;;;8.07;100.00;95647.94;6111634;19;20010;-71
2024/03/28 08:26:37;;;;;;;4.07;2.83;;;;;;;8.19;100.00;95647.25;6110127;19;20470;-71
2024/03/28 08:28:38;;;;;;;2.67;2.30;;;;;;;8.32;100.00;95650.84;6110235;19;20007;-71
2024/03/28 08:30:39;;;;;;;4.75;2.33;;;;;;;8.34;100.00;95651.19;6111675;19;20013;-71
2024/03/28 08:32:39;;;;;;;2.97;2.33;;;;;;;8.30;100.00;95653.28;6109690;19;20044;-71
2024/03/28 08:34:39;;;;;;;2.40;2.20;;;;;;;8.44;100.00;95652.19;6110188;19;20030;-71
2024/03/28 08:36:39;;;;;;;2.53;2.15;;;;;;;8.59;100.00;95658.09;6111180;19;21358;-71
2024/03/28 08:38:40;;;;;;;2.80;2.40;;;;;;;8.52;100.00;95664.56;6109422;19;20011;-71
2024/03/28 08:40:41;;;;;;;4.85;3.90;;;;;;;8.43;100.00;95664.38;6110388;19;20014;-71
2024/03/28 08:42:44;;;;;;;35.78;21.70;;;;;;;8.39;100.00;95666.47;6110258;19;20455;-71
2024/03/28 08:44:46;;;;;;;12.00;7.80;;;;;;;8.40;100.00;95659.75;6111446;19;20015;-71
2024/03/28 08:46:47;;;;;;;7.15;5.00;;;;;;;8.41;100.00;95664.06;6111066;19;20066;-71
2024/03/28 08:48:47;;;;;;;3.63;3.03;;;;;;;8.45;100.00;95664.75;6109837;19;20026;-71
2024/03/28 08:50:47;;;;;;;2.97;2.33;;;;;;;8.53;100.00;95654.31;6111788;19;20307;-71
2024/03/28 08:52:47;;;;;;;2.80;1.88;;;;;;;8.58;100.00;95662.81;6111617;19;20673;-71
2024/03/28 08:54:48;;;;;;;2.80;2.22;;;;;;;8.66;100.00;95668.94;6110701;19;20034;-71
2024/03/28 08:56:48;;;;;;;28.17;18.08;;;;;;;8.74;100.00;95670.28;6110943;19;20011;-71
2024/03/28 08:58:49;;;;;;;3.15;2.20;;;;;;;8.89;100.00;95665.19;6110510;19;20348;-71
2024/03/28 09:00:49;;;;;;;3.25;2.33;;;;;;;8.89;100.00;95670.69;6111502;19;20040;-71
2024/03/28 09:02:49;;;;;;;3.85;2.10;;;;;;;9.03;100.00;95669.56;6109843;19;20014;-71
2024/03/28 09:04:50;;;;;;;2.25;2.05;;;;;;;9.16;100.00;95662.84;6110555;19;20011;-71
2024/03/28 09:06:50;;;;;;;3.03;2.10;;;;;;;9.33;100.00;95668.31;6109406;19;20007;-71
2024/03/28 09:08:50;;;;;;;2.53;2.25;;;;;;;9.37;100.00;95666.22;6108921;19;20018;-71
2024/03/28 09:10:54;;;;;;;3.15;1.95;;;;;;;9.40;100.00;95663.34;6111918;19;20023;-71
2024/03/28 09:12:54;;;;;;;4.47;1.90;;;;;;;9.55;100.00;95656.22;6110482;19;20405;-71
2024/03/28 09:14:55;;;;;;;2.67;1.90;;;;;;;9.69;100.00;95660.53;6110785;19;20044;-71
2024/03/28 09:16:55;;;;;;;4.10;2.50;;;;;;;9.80;100.00;95658.22;6108325;19;20010;-71
2024/03/28 09:18:55;;;;;;;3.55;1.80;;;;;;;9.86;100.00;95655.69;6110409;19;20303;-71
2024/03/28 09:20:56;;;;;;;2.25;1.90;;;;;;;9.89;100.00;95648.50;6110056;19;20450;-71
2024/03/28 09:22:56;;;;;;;3.00;2.00;;;;;;;9.94;100.00;95645.97;6110033;19;20006;-71
2024/03/28 09:24:56;;;;;;;2.53;1.80;;;;;;;9.96;100.00;95640.78;6110872;19;20451;-71
2024/03/28 09:26:57;;;;;;;2.72;1.70;;;;;;;9.94;100.00;95636.91;6108642;19;20003;-71
2024/03/28 09:28:58;;;;;;;3.15;1.65;;;;;;;9.97;100.00;95636.78;6110722;19;20010;-71
2024/03/28 09:30:59;;;;;;;1.85;1.48;;;;;;;10.05;100.00;95646.41;6110104;19;20328;-71
2024/03/28 09:33:00;;;;;;;3.78;1.92;;;;;;;10.16;100.00;95637.00;6110531;19;20490;-71
2024/03/28 09:35:00;;;;;;;2.03;1.50;;;;;;;10.22;100.00;95658.13;6109574;19;20007;-71